sensor_id;sensor_type;location;lat;lon;timestamp;P1;durP1;ratioP1;P2;durP2;ratioP2
30635;SDS011;17400;52.392;9.750;2023-08-06T00:00:47;5.40;;;2.45;;
30635;SDS011;17400;52.392;9.750;2023-08-06T00:03:15;4.50;;;2.97;;
30635;SDS011;17400;52.392;9.750;2023-08-06T00:05:43;4.45;;;2.75;;
30635;SDS011;17400;52.392;9.750;2023-08-06T00:08:11;4.00;;;2.97;;
30635;SDS011;17400;52.392;9.750;2023-08-06T00:10:39;5.32;;;2.70;;
30635;SDS011;17400;52.392;9.750;2023-08-06T00:13:08;5.72;;;3.58;;
30635;SDS011;17400;52.392;9.750;2023-08-06T00:15:38;7.90;;;3.88;;
30635;SDS011;17400;52.392;9.750;2023-08-06T00:18:08;6.32;;;3.72;;
30635;SDS011;17400;52.392;9.750;2023-08-06T00:20:38;6.90;;;3.67;;
30635;SDS011;17400;52.392;9.750;2023-08-06T00:23:06;4.78;;;2.97;;
30635;SDS011;17400;52.392;9.750;2023-08-06T00:25:34;4.93;;;3.20;;
30635;SDS011;17400;52.392;9.750;2023-08-06T00:28:04;7.03;;;3.67;;
30635;SDS011;17400;52.392;9.750;2023-08-06T00:30:31;4.57;;;3.08;;
30635;SDS011;17400;52.392;9.750;2023-08-06T00:33:00;3.80;;;2.65;;
30635;SDS011;17400;52.392;9.750;2023-08-06T00:35:30;5.40;;;3.17;;
30635;SDS011;17400;52.392;9.750;2023-08-06T00:38:02;7.30;;;4.03;;
30635;SDS011;17400;52.392;9.750;2023-08-06T00:40:30;4.78;;;2.80;;
30635;SDS011;17400;52.392;9.750;2023-08-06T00:42:59;4.32;;;2.78;;
30635;SDS011;17400;52.392;9.750;2023-08-06T00:45:27;4.50;;;2.90;;
30635;SDS011;17400;52.392;9.750;2023-08-06T00:47:56;4.60;;;3.20;;
30635;SDS011;17400;52.392;9.750;2023-08-06T00:50:24;3.75;;;2.90;;
30635;SDS011;17400;52.392;9.750;2023-08-06T00:52:53;6.28;;;2.70;;
30635;SDS011;17400;52.392;9.750;2023-08-06T00:55:22;3.88;;;2.58;;
30635;SDS011;17400;52.392;9.750;2023-08-06T00:57:50;4.97;;;3.20;;
30635;SDS011;17400;52.392;9.750;2023-08-06T01:00:19;4.95;;;3.00;;
30635;SDS011;17400;52.392;9.750;2023-08-06T01:02:48;7.97;;;3.25;;
30635;SDS011;17400;52.392;9.750;2023-08-06T01:05:16;6.90;;;4.03;;
30635;SDS011;17400;52.392;9.750;2023-08-06T01:07:45;7.00;;;3.72;;
30635;SDS011;17400;52.392;9.750;2023-08-06T01:10:39;4.25;;;3.10;;
30635;SDS011;17400;52.392;9.750;2023-08-06T01:13:16;4.38;;;2.92;;
30635;SDS011;17400;52.392;9.750;2023-08-06T01:15:49;6.00;;;3.30;;
30635;SDS011;17400;52.392;9.750;2023-08-06T01:18:22;5.38;;;3.42;;
30635;SDS011;17400;52.392;9.750;2023-08-06T01:20:51;4.85;;;3.10;;
30635;SDS011;17400;52.392;9.750;2023-08-06T01:23:20;8.77;;;3.15;;
30635;SDS011;17400;52.392;9.750;2023-08-06T01:25:49;5.25;;;3.72;;
30635;SDS011;17400;52.392;9.750;2023-08-06T01:28:25;5.10;;;3.15;;
30635;SDS011;17400;52.392;9.750;2023-08-06T01:31:08;4.68;;;3.25;;
30635;SDS011;17400;52.392;9.750;2023-08-06T01:33:42;6.60;;;4.05;;
30635;SDS011;17400;52.392;9.750;2023-08-06T01:36:15;6.55;;;3.50;;
30635;SDS011;17400;52.392;9.750;2023-08-06T01:38:44;4.63;;;3.35;;
30635;SDS011;17400;52.392;9.750;2023-08-06T01:41:12;5.40;;;3.38;;
30635;SDS011;17400;52.392;9.750;2023-08-06T01:43:40;5.57;;;3.95;;
30635;SDS011;17400;52.392;9.750;2023-08-06T01:46:08;8.00;;;3.58;;
30635;SDS011;17400;52.392;9.750;2023-08-06T01:48:35;6.50;;;3.28;;
30635;SDS011;17400;52.392;9.750;2023-08-06T01:51:04;6.50;;;3.70;;
30635;SDS011;17400;52.392;9.750;2023-08-06T01:53:33;7.07;;;3.55;;
30635;SDS011;17400;52.392;9.750;2023-08-06T01:56:01;6.10;;;4.45;;
30635;SDS011;17400;52.392;9.750;2023-08-06T01:58:29;5.28;;;4.20;;
30635;SDS011;17400;52.392;9.750;2023-08-06T02:00:57;6.00;;;3.45;;
30635;SDS011;17400;52.392;9.750;2023-08-06T02:03:26;6.13;;;3.50;;
30635;SDS011;17400;52.392;9.750;2023-08-06T02:05:54;5.28;;;3.50;;
30635;SDS011;17400;52.392;9.750;2023-08-06T02:08:22;5.10;;;3.75;;
30635;SDS011;17400;52.392;9.750;2023-08-06T02:10:51;5.45;;;3.78;;
30635;SDS011;17400;52.392;9.750;2023-08-06T02:13:20;5.95;;;4.03;;
30635;SDS011;17400;52.392;9.750;2023-08-06T02:15:48;7.80;;;4.63;;
30635;SDS011;17400;52.392;9.750;2023-08-06T02:18:16;7.25;;;4.60;;
30635;SDS011;17400;52.392;9.750;2023-08-06T02:20:44;8.77;;;4.63;;
30635;SDS011;17400;52.392;9.750;2023-08-06T02:23:22;6.47;;;4.50;;
30635;SDS011;17400;52.392;9.750;2023-08-06T02:25:57;9.45;;;4.82;;
30635;SDS011;17400;52.392;9.750;2023-08-06T02:28:27;6.35;;;4.45;;
30635;SDS011;17400;52.392;9.750;2023-08-06T02:30:55;7.28;;;5.20;;
30635;SDS011;17400;52.392;9.750;2023-08-06T02:33:23;10.00;;;5.10;;
30635;SDS011;17400;52.392;9.750;2023-08-06T02:35:58;8.77;;;5.20;;
30635;SDS011;17400;52.392;9.750;2023-08-06T02:38:26;8.45;;;5.57;;
30635;SDS011;17400;52.392;9.750;2023-08-06T02:40:54;10.07;;;5.88;;
30635;SDS011;17400;52.392;9.750;2023-08-06T02:43:24;7.72;;;4.40;;
30635;SDS011;17400;52.392;9.750;2023-08-06T02:45:51;9.43;;;5.88;;
30635;SDS011;17400;52.392;9.750;2023-08-06T02:48:19;9.98;;;6.15;;
30635;SDS011;17400;52.392;9.750;2023-08-06T02:50:47;7.65;;;4.22;;
30635;SDS011;17400;52.392;9.750;2023-08-06T02:53:15;8.60;;;5.45;;
30635;SDS011;17400;52.392;9.750;2023-08-06T02:55:45;8.02;;;5.60;;
30635;SDS011;17400;52.392;9.750;2023-08-06T02:58:14;10.88;;;5.82;;
30635;SDS011;17400;52.392;9.750;2023-08-06T03:00:43;8.32;;;5.18;;
30635;SDS011;17400;52.392;9.750;2023-08-06T03:03:12;8.73;;;5.38;;
30635;SDS011;17400;52.392;9.750;2023-08-06T03:05:40;8.35;;;5.60;;
30635;SDS011;17400;52.392;9.750;2023-08-06T03:08:07;7.85;;;5.50;;
30635;SDS011;17400;52.392;9.750;2023-08-06T03:10:46;8.23;;;5.45;;
30635;SDS011;17400;52.392;9.750;2023-08-06T03:13:15;9.90;;;4.97;;
30635;SDS011;17400;52.392;9.750;2023-08-06T03:15:45;8.93;;;5.40;;
30635;SDS011;17400;52.392;9.750;2023-08-06T03:18:19;10.27;;;5.32;;
30635;SDS011;17400;52.392;9.750;2023-08-06T03:20:47;9.40;;;5.82;;
30635;SDS011;17400;52.392;9.750;2023-08-06T03:23:15;8.27;;;5.55;;
30635;SDS011;17400;52.392;9.750;2023-08-06T03:25:43;11.27;;;6.43;;
30635;SDS011;17400;52.392;9.750;2023-08-06T03:28:12;8.80;;;5.22;;
30635;SDS011;17400;52.392;9.750;2023-08-06T03:30:40;10.35;;;6.25;;
30635;SDS011;17400;52.392;9.750;2023-08-06T03:33:09;11.57;;;6.80;;
30635;SDS011;17400;52.392;9.750;2023-08-06T03:35:37;9.38;;;5.60;;
30635;SDS011;17400;52.392;9.750;2023-08-06T03:38:05;11.48;;;5.75;;
30635;SDS011;17400;52.392;9.750;2023-08-06T03:40:34;10.95;;;6.15;;
30635;SDS011;17400;52.392;9.750;2023-08-06T03:43:02;8.80;;;5.28;;
30635;SDS011;17400;52.392;9.750;2023-08-06T03:45:30;11.85;;;6.60;;
30635;SDS011;17400;52.392;9.750;2023-08-06T03:47:58;7.68;;;5.13;;
30635;SDS011;17400;52.392;9.750;2023-08-06T03:50:27;10.27;;;6.22;;
30635;SDS011;17400;52.392;9.750;2023-08-06T03:52:55;9.95;;;5.63;;
30635;SDS011;17400;52.392;9.750;2023-08-06T03:55:24;10.93;;;5.70;;
30635;SDS011;17400;52.392;9.750;2023-08-06T03:57:52;7.90;;;5.00;;
30635;SDS011;17400;52.392;9.750;2023-08-06T04:00:20;9.25;;;6.28;;
30635;SDS011;17400;52.392;9.750;2023-08-06T04:02:48;12.02;;;6.00;;
30635;SDS011;17400;52.392;9.750;2023-08-06T04:05:16;14.98;;;7.43;;
30635;SDS011;17400;52.392;9.750;2023-08-06T04:07:46;12.68;;;7.55;;
30635;SDS011;17400;52.392;9.750;2023-08-06T04:10:14;12.70;;;6.93;;
30635;SDS011;17400;52.392;9.750;2023-08-06T04:12:42;9.63;;;6.93;;
30635;SDS011;17400;52.392;9.750;2023-08-06T04:15:10;13.88;;;7.38;;
30635;SDS011;17400;52.392;9.750;2023-08-06T04:17:38;11.57;;;6.15;;
30635;SDS011;17400;52.392;9.750;2023-08-06T04:20:06;13.02;;;7.32;;
30635;SDS011;17400;52.392;9.750;2023-08-06T04:22:35;11.85;;;6.85;;
30635;SDS011;17400;52.392;9.750;2023-08-06T04:25:05;10.35;;;6.43;;
30635;SDS011;17400;52.392;9.750;2023-08-06T04:27:33;9.98;;;6.30;;
30635;SDS011;17400;52.392;9.750;2023-08-06T04:30:03;10.57;;;6.00;;
30635;SDS011;17400;52.392;9.750;2023-08-06T04:32:35;8.90;;;5.38;;
30635;SDS011;17400;52.392;9.750;2023-08-06T04:35:03;6.43;;;4.28;;
30635;SDS011;17400;52.392;9.750;2023-08-06T04:37:31;7.88;;;4.93;;
30635;SDS011;17400;52.392;9.750;2023-08-06T04:39:59;8.30;;;4.95;;
30635;SDS011;17400;52.392;9.750;2023-08-06T04:42:28;8.90;;;6.00;;
30635;SDS011;17400;52.392;9.750;2023-08-06T04:44:56;12.48;;;6.40;;
30635;SDS011;17400;52.392;9.750;2023-08-06T04:47:24;10.85;;;5.53;;
30635;SDS011;17400;52.392;9.750;2023-08-06T04:49:53;8.70;;;5.05;;
30635;SDS011;17400;52.392;9.750;2023-08-06T04:52:21;7.93;;;5.53;;
30635;SDS011;17400;52.392;9.750;2023-08-06T04:54:49;10.55;;;5.78;;
30635;SDS011;17400;52.392;9.750;2023-08-06T04:57:16;9.23;;;6.50;;
30635;SDS011;17400;52.392;9.750;2023-08-06T04:59:46;10.98;;;5.97;;
30635;SDS011;17400;52.392;9.750;2023-08-06T05:02:14;11.35;;;6.32;;
30635;SDS011;17400;52.392;9.750;2023-08-06T05:04:42;11.60;;;6.15;;
30635;SDS011;17400;52.392;9.750;2023-08-06T05:07:10;8.60;;;5.65;;
30635;SDS011;17400;52.392;9.750;2023-08-06T05:09:38;12.60;;;5.70;;
30635;SDS011;17400;52.392;9.750;2023-08-06T05:12:06;10.90;;;6.35;;
30635;SDS011;17400;52.392;9.750;2023-08-06T05:14:35;11.68;;;6.25;;
30635;SDS011;17400;52.392;9.750;2023-08-06T05:17:04;11.70;;;5.85;;
30635;SDS011;17400;52.392;9.750;2023-08-06T05:19:32;8.65;;;5.75;;
30635;SDS011;17400;52.392;9.750;2023-08-06T05:22:00;11.80;;;6.28;;
30635;SDS011;17400;52.392;9.750;2023-08-06T05:24:28;10.45;;;5.93;;
30635;SDS011;17400;52.392;9.750;2023-08-06T05:26:56;10.38;;;6.13;;
30635;SDS011;17400;52.392;9.750;2023-08-06T05:29:24;8.35;;;5.47;;
30635;SDS011;17400;52.392;9.750;2023-08-06T05:31:54;7.65;;;4.88;;
30635;SDS011;17400;52.392;9.750;2023-08-06T05:34:24;9.93;;;6.97;;
30635;SDS011;17400;52.392;9.750;2023-08-06T05:36:52;7.72;;;4.80;;
30635;SDS011;17400;52.392;9.750;2023-08-06T05:39:20;9.32;;;5.40;;
30635;SDS011;17400;52.392;9.750;2023-08-06T05:41:48;9.20;;;5.30;;
30635;SDS011;17400;52.392;9.750;2023-08-06T05:44:17;9.98;;;6.38;;
30635;SDS011;17400;52.392;9.750;2023-08-06T05:46:45;9.80;;;6.30;;
30635;SDS011;17400;52.392;9.750;2023-08-06T05:49:13;8.15;;;4.90;;
30635;SDS011;17400;52.392;9.750;2023-08-06T05:51:42;9.07;;;5.38;;
30635;SDS011;17400;52.392;9.750;2023-08-06T05:54:10;9.35;;;6.32;;
30635;SDS011;17400;52.392;9.750;2023-08-06T05:56:38;9.02;;;5.35;;
30635;SDS011;17400;52.392;9.750;2023-08-06T05:59:06;8.27;;;4.70;;
30635;SDS011;17400;52.392;9.750;2023-08-06T06:01:33;6.80;;;4.70;;
30635;SDS011;17400;52.392;9.750;2023-08-06T06:04:01;8.07;;;5.03;;
30635;SDS011;17400;52.392;9.750;2023-08-06T06:06:30;10.52;;;5.00;;
30635;SDS011;17400;52.392;9.750;2023-08-06T06:08:59;7.47;;;4.60;;
30635;SDS011;17400;52.392;9.750;2023-08-06T06:11:27;9.65;;;4.50;;
30635;SDS011;17400;52.392;9.750;2023-08-06T06:13:54;7.97;;;4.53;;
30635;SDS011;17400;52.392;9.750;2023-08-06T06:16:22;6.72;;;4.10;;
30635;SDS011;17400;52.392;9.750;2023-08-06T06:18:50;8.52;;;4.72;;
30635;SDS011;17400;52.392;9.750;2023-08-06T06:21:18;5.28;;;3.60;;
30635;SDS011;17400;52.392;9.750;2023-08-06T06:23:46;4.72;;;3.55;;
30635;SDS011;17400;52.392;9.750;2023-08-06T06:26:15;6.97;;;3.58;;
30635;SDS011;17400;52.392;9.750;2023-08-06T06:28:43;6.15;;;3.58;;
30635;SDS011;17400;52.392;9.750;2023-08-06T06:31:11;4.78;;;3.10;;
30635;SDS011;17400;52.392;9.750;2023-08-06T06:33:39;6.40;;;3.25;;
30635;SDS011;17400;52.392;9.750;2023-08-06T06:36:07;5.35;;;2.90;;
30635;SDS011;17400;52.392;9.750;2023-08-06T06:38:36;6.47;;;3.38;;
30635;SDS011;17400;52.392;9.750;2023-08-06T06:41:04;6.45;;;3.30;;
30635;SDS011;17400;52.392;9.750;2023-08-06T06:43:33;5.22;;;3.03;;
30635;SDS011;17400;52.392;9.750;2023-08-06T06:46:01;5.65;;;2.90;;
30635;SDS011;17400;52.392;9.750;2023-08-06T06:48:31;5.40;;;3.03;;
30635;SDS011;17400;52.392;9.750;2023-08-06T06:51:00;5.10;;;3.03;;
30635;SDS011;17400;52.392;9.750;2023-08-06T06:53:28;5.32;;;2.80;;
30635;SDS011;17400;52.392;9.750;2023-08-06T06:56:01;7.00;;;3.42;;
30635;SDS011;17400;52.392;9.750;2023-08-06T06:58:30;4.70;;;3.08;;
30635;SDS011;17400;52.392;9.750;2023-08-06T07:01:00;5.18;;;2.92;;
30635;SDS011;17400;52.392;9.750;2023-08-06T07:03:28;6.65;;;3.60;;
30635;SDS011;17400;52.392;9.750;2023-08-06T07:05:56;5.13;;;3.03;;
30635;SDS011;17400;52.392;9.750;2023-08-06T07:08:25;4.40;;;2.65;;
30635;SDS011;17400;52.392;9.750;2023-08-06T07:10:59;4.05;;;2.55;;
30635;SDS011;17400;52.392;9.750;2023-08-06T07:13:28;5.65;;;2.90;;
30635;SDS011;17400;52.392;9.750;2023-08-06T07:15:56;6.88;;;3.00;;
30635;SDS011;17400;52.392;9.750;2023-08-06T07:18:26;3.90;;;2.60;;
30635;SDS011;17400;52.392;9.750;2023-08-06T07:20:54;3.22;;;2.33;;
30635;SDS011;17400;52.392;9.750;2023-08-06T07:23:23;3.90;;;1.90;;
30635;SDS011;17400;52.392;9.750;2023-08-06T07:25:51;3.35;;;2.00;;
30635;SDS011;17400;52.392;9.750;2023-08-06T07:28:20;3.35;;;2.20;;
30635;SDS011;17400;52.392;9.750;2023-08-06T07:30:48;4.53;;;2.60;;
30635;SDS011;17400;52.392;9.750;2023-08-06T07:33:16;3.80;;;2.55;;
30635;SDS011;17400;52.392;9.750;2023-08-06T07:35:45;4.15;;;2.40;;
30635;SDS011;17400;52.392;9.750;2023-08-06T07:38:13;3.25;;;2.38;;
30635;SDS011;17400;52.392;9.750;2023-08-06T07:40:41;7.53;;;2.53;;
30635;SDS011;17400;52.392;9.750;2023-08-06T07:43:10;6.45;;;3.08;;
30635;SDS011;17400;52.392;9.750;2023-08-06T07:45:37;5.72;;;2.70;;
30635;SDS011;17400;52.392;9.750;2023-08-06T07:48:05;2.70;;;1.75;;
30635;SDS011;17400;52.392;9.750;2023-08-06T07:50:33;3.25;;;2.35;;
30635;SDS011;17400;52.392;9.750;2023-08-06T07:53:03;4.28;;;3.03;;
30635;SDS011;17400;52.392;9.750;2023-08-06T07:55:30;3.35;;;1.98;;
30635;SDS011;17400;52.392;9.750;2023-08-06T07:57:58;4.47;;;2.33;;
30635;SDS011;17400;52.392;9.750;2023-08-06T08:00:26;3.47;;;2.45;;
30635;SDS011;17400;52.392;9.750;2023-08-06T08:02:54;4.72;;;2.03;;
30635;SDS011;17400;52.392;9.750;2023-08-06T08:05:22;3.80;;;2.13;;
30635;SDS011;17400;52.392;9.750;2023-08-06T08:07:50;3.67;;;2.40;;
30635;SDS011;17400;52.392;9.750;2023-08-06T08:10:19;3.13;;;1.98;;
30635;SDS011;17400;52.392;9.750;2023-08-06T08:12:47;2.78;;;1.90;;
30635;SDS011;17400;52.392;9.750;2023-08-06T08:15:15;3.90;;;2.08;;
30635;SDS011;17400;52.392;9.750;2023-08-06T08:17:44;4.65;;;2.25;;
30635;SDS011;17400;52.392;9.750;2023-08-06T08:20:15;3.80;;;2.50;;
30635;SDS011;17400;52.392;9.750;2023-08-06T08:22:44;5.28;;;2.47;;
30635;SDS011;17400;52.392;9.750;2023-08-06T08:25:12;4.30;;;2.63;;
30635;SDS011;17400;52.392;9.750;2023-08-06T08:27:41;2.60;;;2.03;;
30635;SDS011;17400;52.392;9.750;2023-08-06T08:30:09;3.42;;;2.53;;
30635;SDS011;17400;52.392;9.750;2023-08-06T08:32:37;2.60;;;1.88;;
30635;SDS011;17400;52.392;9.750;2023-08-06T08:35:05;8.55;;;4.07;;
30635;SDS011;17400;52.392;9.750;2023-08-06T08:37:33;5.13;;;3.35;;
30635;SDS011;17400;52.392;9.750;2023-08-06T08:40:03;2.33;;;2.00;;
30635;SDS011;17400;52.392;9.750;2023-08-06T08:42:31;3.13;;;2.47;;
30635;SDS011;17400;52.392;9.750;2023-08-06T08:45:01;3.13;;;2.35;;
30635;SDS011;17400;52.392;9.750;2023-08-06T08:47:30;5.40;;;3.42;;
30635;SDS011;17400;52.392;9.750;2023-08-06T08:49:58;3.50;;;2.35;;
30635;SDS011;17400;52.392;9.750;2023-08-06T08:52:28;3.47;;;2.00;;
30635;SDS011;17400;52.392;9.750;2023-08-06T08:54:59;3.05;;;1.85;;
30635;SDS011;17400;52.392;9.750;2023-08-06T08:57:29;4.03;;;2.15;;
30635;SDS011;17400;52.392;9.750;2023-08-06T08:59:57;3.25;;;1.60;;
30635;SDS011;17400;52.392;9.750;2023-08-06T09:02:28;4.05;;;1.60;;
30635;SDS011;17400;52.392;9.750;2023-08-06T09:04:56;2.80;;;1.90;;
30635;SDS011;17400;52.392;9.750;2023-08-06T09:07:29;2.45;;;1.92;;
30635;SDS011;17400;52.392;9.750;2023-08-06T09:10:02;2.63;;;1.60;;
30635;SDS011;17400;52.392;9.750;2023-08-06T09:12:32;3.83;;;2.30;;
30635;SDS011;17400;52.392;9.750;2023-08-06T09:15:00;2.22;;;1.80;;
30635;SDS011;17400;52.392;9.750;2023-08-06T09:17:31;7.53;;;2.17;;
30635;SDS011;17400;52.392;9.750;2023-08-06T09:19:59;2.58;;;1.92;;
30635;SDS011;17400;52.392;9.750;2023-08-06T09:22:35;2.17;;;1.95;;
30635;SDS011;17400;52.392;9.750;2023-08-06T09:25:03;2.92;;;2.28;;
30635;SDS011;17400;52.392;9.750;2023-08-06T09:27:36;2.67;;;1.65;;
30635;SDS011;17400;52.392;9.750;2023-08-06T09:30:04;4.60;;;2.30;;
30635;SDS011;17400;52.392;9.750;2023-08-06T09:35:18;2.72;;;1.67;;
30635;SDS011;17400;52.392;9.750;2023-08-06T09:37:46;1.65;;;1.48;;
30635;SDS011;17400;52.392;9.750;2023-08-06T09:43:01;2.40;;;1.52;;
30635;SDS011;17400;52.392;9.750;2023-08-06T09:45:32;5.22;;;1.98;;
30635;SDS011;17400;52.392;9.750;2023-08-06T09:48:04;3.95;;;2.28;;
30635;SDS011;17400;52.392;9.750;2023-08-06T09:50:33;2.78;;;1.88;;
30635;SDS011;17400;52.392;9.750;2023-08-06T09:53:03;2.45;;;1.80;;
30635;SDS011;17400;52.392;9.750;2023-08-06T09:55:32;3.17;;;2.13;;
30635;SDS011;17400;52.392;9.750;2023-08-06T09:58:00;2.40;;;1.95;;
30635;SDS011;17400;52.392;9.750;2023-08-06T10:00:28;4.95;;;2.30;;
30635;SDS011;17400;52.392;9.750;2023-08-06T10:02:59;2.60;;;1.92;;
30635;SDS011;17400;52.392;9.750;2023-08-06T10:05:29;2.53;;;1.88;;
30635;SDS011;17400;52.392;9.750;2023-08-06T10:07:59;2.42;;;1.88;;
30635;SDS011;17400;52.392;9.750;2023-08-06T10:10:30;2.95;;;1.83;;
30635;SDS011;17400;52.392;9.750;2023-08-06T10:12:58;3.60;;;1.90;;
30635;SDS011;17400;52.392;9.750;2023-08-06T10:15:28;2.05;;;1.67;;
30635;SDS011;17400;52.392;9.750;2023-08-06T10:17:59;3.78;;;2.53;;
30635;SDS011;17400;52.392;9.750;2023-08-06T10:20:33;3.35;;;2.28;;
30635;SDS011;17400;52.392;9.750;2023-08-06T10:23:02;3.45;;;2.22;;
30635;SDS011;17400;52.392;9.750;2023-08-06T10:25:32;5.13;;;3.65;;
30635;SDS011;17400;52.392;9.750;2023-08-06T10:28:01;4.32;;;3.55;;
30635;SDS011;17400;52.392;9.750;2023-08-06T10:30:40;8.93;;;3.30;;
30635;SDS011;17400;52.392;9.750;2023-08-06T10:33:09;5.97;;;3.40;;
30635;SDS011;17400;52.392;9.750;2023-08-06T10:35:40;6.45;;;4.18;;
30635;SDS011;17400;52.392;9.750;2023-08-06T10:38:12;3.17;;;2.20;;
30635;SDS011;17400;52.392;9.750;2023-08-06T10:40:42;3.83;;;2.63;;
30635;SDS011;17400;52.392;9.750;2023-08-06T10:43:24;3.50;;;2.30;;
30635;SDS011;17400;52.392;9.750;2023-08-06T10:45:53;6.05;;;2.20;;
30635;SDS011;17400;52.392;9.750;2023-08-06T10:48:28;3.25;;;2.58;;
30635;SDS011;17400;52.392;9.750;2023-08-06T10:50:59;5.05;;;2.30;;
30635;SDS011;17400;52.392;9.750;2023-08-06T10:53:28;4.15;;;2.30;;
30635;SDS011;17400;52.392;9.750;2023-08-06T10:56:00;2.55;;;1.90;;
30635;SDS011;17400;52.392;9.750;2023-08-06T10:58:31;3.15;;;2.17;;
30635;SDS011;17400;52.392;9.750;2023-08-06T11:00:59;3.67;;;2.38;;
30635;SDS011;17400;52.392;9.750;2023-08-06T11:03:27;3.47;;;2.53;;
30635;SDS011;17400;52.392;9.750;2023-08-06T11:05:56;4.03;;;3.00;;
30635;SDS011;17400;52.392;9.750;2023-08-06T11:08:26;3.17;;;2.45;;
30635;SDS011;17400;52.392;9.750;2023-08-06T11:10:55;3.95;;;2.88;;
30635;SDS011;17400;52.392;9.750;2023-08-06T11:13:35;3.17;;;2.22;;
30635;SDS011;17400;52.392;9.750;2023-08-06T11:16:04;4.03;;;2.40;;
30635;SDS011;17400;52.392;9.750;2023-08-06T11:18:33;3.20;;;2.40;;
30635;SDS011;17400;52.392;9.750;2023-08-06T11:21:01;3.42;;;2.10;;
30635;SDS011;17400;52.392;9.750;2023-08-06T11:23:31;4.85;;;2.45;;
30635;SDS011;17400;52.392;9.750;2023-08-06T11:25:59;4.13;;;2.17;;
30635;SDS011;17400;52.392;9.750;2023-08-06T11:28:27;2.60;;;1.98;;
30635;SDS011;17400;52.392;9.750;2023-08-06T11:30:56;3.25;;;2.35;;
30635;SDS011;17400;52.392;9.750;2023-08-06T11:33:29;4.25;;;2.33;;
30635;SDS011;17400;52.392;9.750;2023-08-06T11:35:58;8.48;;;2.50;;
30635;SDS011;17400;52.392;9.750;2023-08-06T11:38:29;2.65;;;2.15;;
30635;SDS011;17400;52.392;9.750;2023-08-06T11:40:59;3.78;;;2.22;;
30635;SDS011;17400;52.392;9.750;2023-08-06T11:43:29;4.43;;;2.30;;
30635;SDS011;17400;52.392;9.750;2023-08-06T11:45:59;2.50;;;1.77;;
30635;SDS011;17400;52.392;9.750;2023-08-06T11:48:27;3.20;;;2.20;;
30635;SDS011;17400;52.392;9.750;2023-08-06T11:50:55;2.65;;;1.92;;
30635;SDS011;17400;52.392;9.750;2023-08-06T11:53:27;2.47;;;1.90;;
30635;SDS011;17400;52.392;9.750;2023-08-06T11:55:55;3.95;;;2.55;;
30635;SDS011;17400;52.392;9.750;2023-08-06T11:58:25;2.78;;;1.60;;
30635;SDS011;17400;52.392;9.750;2023-08-06T12:00:53;3.30;;;1.98;;
30635;SDS011;17400;52.392;9.750;2023-08-06T12:03:22;2.70;;;1.73;;
30635;SDS011;17400;52.392;9.750;2023-08-06T12:05:53;2.88;;;1.95;;
30635;SDS011;17400;52.392;9.750;2023-08-06T12:08:25;3.83;;;2.35;;
30635;SDS011;17400;52.392;9.750;2023-08-06T12:10:54;2.42;;;1.75;;
30635;SDS011;17400;52.392;9.750;2023-08-06T12:13:22;3.35;;;2.40;;
30635;SDS011;17400;52.392;9.750;2023-08-06T12:15:51;2.75;;;1.95;;
30635;SDS011;17400;52.392;9.750;2023-08-06T12:18:21;2.72;;;2.30;;
30635;SDS011;17400;52.392;9.750;2023-08-06T12:20:49;3.63;;;2.20;;
30635;SDS011;17400;52.392;9.750;2023-08-06T12:23:17;4.97;;;2.38;;
30635;SDS011;17400;52.392;9.750;2023-08-06T12:25:45;2.83;;;2.03;;
30635;SDS011;17400;52.392;9.750;2023-08-06T12:28:13;2.97;;;2.55;;
30635;SDS011;17400;52.392;9.750;2023-08-06T12:30:41;3.28;;;2.22;;
30635;SDS011;17400;52.392;9.750;2023-08-06T12:33:12;3.00;;;2.25;;
30635;SDS011;17400;52.392;9.750;2023-08-06T12:35:40;3.22;;;1.98;;
30635;SDS011;17400;52.392;9.750;2023-08-06T12:38:08;4.93;;;2.28;;
30635;SDS011;17400;52.392;9.750;2023-08-06T12:40:36;2.47;;;1.73;;
30635;SDS011;17400;52.392;9.750;2023-08-06T12:43:08;3.53;;;1.90;;
30635;SDS011;17400;52.392;9.750;2023-08-06T12:45:36;4.55;;;2.25;;
30635;SDS011;17400;52.392;9.750;2023-08-06T12:48:05;3.53;;;2.33;;
30635;SDS011;17400;52.392;9.750;2023-08-06T12:50:34;4.25;;;2.55;;
30635;SDS011;17400;52.392;9.750;2023-08-06T12:53:03;3.72;;;2.40;;
30635;SDS011;17400;52.392;9.750;2023-08-06T12:55:32;4.50;;;2.15;;
30635;SDS011;17400;52.392;9.750;2023-08-06T12:58:00;4.43;;;2.83;;
30635;SDS011;17400;52.392;9.750;2023-08-06T13:00:28;3.20;;;2.65;;
30635;SDS011;17400;52.392;9.750;2023-08-06T13:02:57;4.43;;;2.70;;
30635;SDS011;17400;52.392;9.750;2023-08-06T13:05:25;3.75;;;2.50;;
30635;SDS011;17400;52.392;9.750;2023-08-06T13:07:54;2.88;;;2.03;;
30635;SDS011;17400;52.392;9.750;2023-08-06T13:10:23;3.47;;;2.67;;
30635;SDS011;17400;52.392;9.750;2023-08-06T13:12:51;3.42;;;2.35;;
30635;SDS011;17400;52.392;9.750;2023-08-06T13:15:20;3.55;;;2.30;;
30635;SDS011;17400;52.392;9.750;2023-08-06T13:17:48;4.25;;;2.67;;
30635;SDS011;17400;52.392;9.750;2023-08-06T13:20:16;3.42;;;2.08;;
30635;SDS011;17400;52.392;9.750;2023-08-06T13:22:46;4.20;;;2.30;;
30635;SDS011;17400;52.392;9.750;2023-08-06T13:25:19;4.47;;;2.60;;
30635;SDS011;17400;52.392;9.750;2023-08-06T13:27:47;3.88;;;2.20;;
30635;SDS011;17400;52.392;9.750;2023-08-06T13:30:15;3.70;;;2.63;;
30635;SDS011;17400;52.392;9.750;2023-08-06T13:32:44;2.95;;;2.22;;
30635;SDS011;17400;52.392;9.750;2023-08-06T13:35:12;4.75;;;2.38;;
30635;SDS011;17400;52.392;9.750;2023-08-06T13:37:40;4.32;;;2.42;;
30635;SDS011;17400;52.392;9.750;2023-08-06T13:40:08;2.78;;;2.25;;
30635;SDS011;17400;52.392;9.750;2023-08-06T13:42:37;4.72;;;2.80;;
30635;SDS011;17400;52.392;9.750;2023-08-06T13:45:06;4.28;;;2.42;;
30635;SDS011;17400;52.392;9.750;2023-08-06T13:47:34;3.38;;;2.20;;
30635;SDS011;17400;52.392;9.750;2023-08-06T13:50:02;3.55;;;2.70;;
30635;SDS011;17400;52.392;9.750;2023-08-06T13:52:31;3.17;;;2.22;;
30635;SDS011;17400;52.392;9.750;2023-08-06T13:54:59;5.05;;;2.15;;
30635;SDS011;17400;52.392;9.750;2023-08-06T13:57:27;3.63;;;2.05;;
30635;SDS011;17400;52.392;9.750;2023-08-06T13:59:57;5.18;;;2.65;;
30635;SDS011;17400;52.392;9.750;2023-08-06T14:02:25;4.80;;;2.03;;
30635;SDS011;17400;52.392;9.750;2023-08-06T14:04:53;5.68;;;2.42;;
30635;SDS011;17400;52.392;9.750;2023-08-06T14:07:21;4.30;;;2.53;;
30635;SDS011;17400;52.392;9.750;2023-08-06T14:09:49;3.63;;;2.20;;
30635;SDS011;17400;52.392;9.750;2023-08-06T14:12:17;4.05;;;2.47;;
30635;SDS011;17400;52.392;9.750;2023-08-06T14:14:45;2.85;;;1.88;;
30635;SDS011;17400;52.392;9.750;2023-08-06T14:17:15;3.00;;;2.28;;
30635;SDS011;17400;52.392;9.750;2023-08-06T14:19:43;4.43;;;2.30;;
30635;SDS011;17400;52.392;9.750;2023-08-06T14:22:11;2.88;;;2.28;;
30635;SDS011;17400;52.392;9.750;2023-08-06T14:24:39;3.08;;;2.28;;
30635;SDS011;17400;52.392;9.750;2023-08-06T14:27:11;4.03;;;2.20;;
30635;SDS011;17400;52.392;9.750;2023-08-06T14:29:39;3.72;;;1.88;;
30635;SDS011;17400;52.392;9.750;2023-08-06T14:32:07;3.80;;;2.00;;
30635;SDS011;17400;52.392;9.750;2023-08-06T14:34:36;3.80;;;2.55;;
30635;SDS011;17400;52.392;9.750;2023-08-06T14:37:04;2.72;;;2.22;;
30635;SDS011;17400;52.392;9.750;2023-08-06T14:39:34;2.40;;;1.67;;
30635;SDS011;17400;52.392;9.750;2023-08-06T14:42:02;2.20;;;1.48;;
30635;SDS011;17400;52.392;9.750;2023-08-06T14:44:31;5.85;;;2.50;;
30635;SDS011;17400;52.392;9.750;2023-08-06T14:47:00;2.80;;;2.03;;
30635;SDS011;17400;52.392;9.750;2023-08-06T14:49:29;2.63;;;1.77;;
30635;SDS011;17400;52.392;9.750;2023-08-06T14:51:58;3.63;;;2.40;;
30635;SDS011;17400;52.392;9.750;2023-08-06T14:54:28;3.20;;;1.67;;
30635;SDS011;17400;52.392;9.750;2023-08-06T14:56:56;4.57;;;2.53;;
30635;SDS011;17400;52.392;9.750;2023-08-06T14:59:24;3.80;;;2.45;;
30635;SDS011;17400;52.392;9.750;2023-08-06T15:01:54;3.00;;;2.25;;